sensor_id;sensor_type;location;lat;lon;timestamp;pressure;altitude;pressure_sealevel;temperature;humidity
16664;BME280;8445;51.270;9.434;2023-08-21T00:00:36;100154.91;;;21.80;69.56
16664;BME280;8445;51.270;9.434;2023-08-21T00:03:02;100154.56;;;21.76;69.43
16664;BME280;8445;51.270;9.434;2023-08-21T00:05:28;100152.28;;;21.68;69.60
16664;BME280;8445;51.270;9.434;2023-08-21T00:07:54;100156.78;;;21.63;69.77
16664;BME280;8445;51.270;9.434;2023-08-21T00:10:20;100160.91;;;21.65;69.87
16664;BME280;8445;51.270;9.434;2023-08-21T00:12:46;100149.97;;;21.60;69.80
16664;BME280;8445;51.270;9.434;2023-08-21T00:15:12;100154.88;;;21.63;69.95
16664;BME280;8445;51.270;9.434;2023-08-21T00:17:37;100149.06;;;21.54;69.65
16664;BME280;8445;51.270;9.434;2023-08-21T00:20:05;100142.00;;;21.53;70.01
16664;BME280;8445;51.270;9.434;2023-08-21T00:22:34;100137.31;;;21.49;70.19
16664;BME280;8445;51.270;9.434;2023-08-21T00:25:02;100147.00;;;21.62;70.37
16664;BME280;8445;51.270;9.434;2023-08-21T00:27:41;100064.13;;;21.15;70.33
16664;BME280;8445;51.270;9.434;2023-08-21T00:30:10;100132.56;;;21.56;70.31
16664;BME280;8445;51.270;9.434;2023-08-21T00:32:41;100131.81;;;21.61;70.32
16664;BME280;8445;51.270;9.434;2023-08-21T00:35:10;100134.38;;;21.67;70.42
16664;BME280;8445;51.270;9.434;2023-08-21T00:37:39;100114.66;;;21.55;70.46
16664;BME280;8445;51.270;9.434;2023-08-21T00:40:12;100124.44;;;21.56;70.17
16664;BME280;8445;51.270;9.434;2023-08-21T00:42:42;100132.06;;;21.59;70.19
16664;BME280;8445;51.270;9.434;2023-08-21T00:45:11;100135.84;;;21.58;70.37
16664;BME280;8445;51.270;9.434;2023-08-21T00:47:42;100114.47;;;21.45;70.69
16664;BME280;8445;51.270;9.434;2023-08-21T00:50:12;100135.84;;;21.58;70.40
16664;BME280;8445;51.270;9.434;2023-08-21T00:52:47;100133.94;;;21.59;70.41
16664;BME280;8445;51.270;9.434;2023-08-21T00:55:37;100086.06;;;21.31;70.12
16664;BME280;8445;51.270;9.434;2023-08-21T00:58:11;100049.75;;;21.15;70.04
16664;BME280;8445;51.270;9.434;2023-08-21T01:01:03;100057.63;;;21.16;70.11
16664;BME280;8445;51.270;9.434;2023-08-21T01:03:40;100103.00;;;21.38;70.57
16664;BME280;8445;51.270;9.434;2023-08-21T01:06:21;100111.84;;;21.33;70.77
16664;BME280;8445;51.270;9.434;2023-08-21T01:15:20;100114.16;;;21.41;70.91
16664;BME280;8445;51.270;9.434;2023-08-21T01:17:57;100096.69;;;21.20;70.86
16664;BME280;8445;51.270;9.434;2023-08-21T01:20:25;100075.91;;;21.09;71.31
16664;BME280;8445;51.270;9.434;2023-08-21T01:23:05;100112.03;;;21.27;71.24
16664;BME280;8445;51.270;9.434;2023-08-21T01:25:34;100156.28;;;21.49;71.58
16664;BME280;8445;51.270;9.434;2023-08-21T01:28:06;100138.81;;;21.40;71.62
16664;BME280;8445;51.270;9.434;2023-08-21T01:30:40;100127.78;;;21.30;71.69
16664;BME280;8445;51.270;9.434;2023-08-21T01:36:31;100100.97;;;21.16;71.66
16664;BME280;8445;51.270;9.434;2023-08-21T01:39:00;100089.06;;;21.01;71.90
16664;BME280;8445;51.270;9.434;2023-08-21T01:41:30;100156.22;;;21.44;71.41
16664;BME280;8445;51.270;9.434;2023-08-21T01:43:56;100171.59;;;21.55;71.60
16664;BME280;8445;51.270;9.434;2023-08-21T01:46:22;100173.03;;;21.63;71.44
16664;BME280;8445;51.270;9.434;2023-08-21T01:48:49;100161.63;;;21.61;71.11
16664;BME280;8445;51.270;9.434;2023-08-21T01:51:24;100121.53;;;21.46;70.93
16664;BME280;8445;51.270;9.434;2023-08-21T01:53:55;100142.75;;;21.66;70.79
16664;BME280;8445;51.270;9.434;2023-08-21T01:56:34;100144.13;;;21.68;70.89
16664;BME280;8445;51.270;9.434;2023-08-21T01:59:07;100141.66;;;21.50;71.08
16664;BME280;8445;51.270;9.434;2023-08-21T02:01:41;100137.91;;;21.51;70.77
16664;BME280;8445;51.270;9.434;2023-08-21T02:04:15;100098.22;;;21.28;70.95
16664;BME280;8445;51.270;9.434;2023-08-21T02:06:49;100080.28;;;21.10;70.88
16664;BME280;8445;51.270;9.434;2023-08-21T02:09:15;100161.97;;;21.64;70.85
16664;BME280;8445;51.270;9.434;2023-08-21T02:11:42;100143.22;;;21.63;70.61
16664;BME280;8445;51.270;9.434;2023-08-21T02:14:08;100128.47;;;21.53;70.61
16664;BME280;8445;51.270;9.434;2023-08-21T02:16:34;100145.59;;;21.59;70.83
16664;BME280;8445;51.270;9.434;2023-08-21T02:19:01;100145.03;;;21.57;70.89
16664;BME280;8445;51.270;9.434;2023-08-21T02:21:27;100140.94;;;21.54;70.89
16664;BME280;8445;51.270;9.434;2023-08-21T02:23:53;100143.91;;;21.53;71.06
16664;BME280;8445;51.270;9.434;2023-08-21T02:26:20;100133.38;;;21.40;70.95
16664;BME280;8445;51.270;9.434;2023-08-21T02:28:49;100136.09;;;21.40;71.01
16664;BME280;8445;51.270;9.434;2023-08-21T02:31:18;100137.25;;;21.44;71.01
16664;BME280;8445;51.270;9.434;2023-08-21T02:33:49;100119.66;;;21.30;71.21
16664;BME280;8445;51.270;9.434;2023-08-21T02:36:18;100149.72;;;21.45;71.43
16664;BME280;8445;51.270;9.434;2023-08-21T02:38:44;100147.41;;;21.37;72.81
16664;BME280;8445;51.270;9.434;2023-08-21T02:41:12;100124.91;;;20.91;73.34
16664;BME280;8445;51.270;9.434;2023-08-21T02:43:41;100145.22;;;20.77;73.78
16664;BME280;8445;51.270;9.434;2023-08-21T02:46:16;100120.81;;;20.36;74.30
16664;BME280;8445;51.270;9.434;2023-08-21T02:48:50;100139.44;;;20.33;74.17
16664;BME280;8445;51.270;9.434;2023-08-21T02:51:19;100164.13;;;20.25;74.61
16664;BME280;8445;51.270;9.434;2023-08-21T02:53:53;100144.38;;;20.13;75.59
16664;BME280;8445;51.270;9.434;2023-08-21T02:56:19;100128.19;;;19.89;75.27
16664;BME280;8445;51.270;9.434;2023-08-21T02:58:53;100133.81;;;19.76;75.76
16664;BME280;8445;51.270;9.434;2023-08-21T03:01:22;100134.03;;;19.63;76.23
16664;BME280;8445;51.270;9.434;2023-08-21T03:03:51;100150.50;;;19.61;77.09
16664;BME280;8445;51.270;9.434;2023-08-21T03:06:29;100134.44;;;19.36;77.28
16664;BME280;8445;51.270;9.434;2023-08-21T03:09:05;100126.34;;;19.25;77.05
16664;BME280;8445;51.270;9.434;2023-08-21T03:11:31;100136.91;;;19.26;77.10
16664;BME280;8445;51.270;9.434;2023-08-21T03:14:07;100140.53;;;19.20;77.03
16664;BME280;8445;51.270;9.434;2023-08-21T03:16:36;100140.50;;;19.08;77.00
16664;BME280;8445;51.270;9.434;2023-08-21T03:19:02;100133.69;;;19.06;77.27
16664;BME280;8445;51.270;9.434;2023-08-21T03:21:38;100093.91;;;18.71;77.23
16664;BME280;8445;51.270;9.434;2023-08-21T03:24:06;100124.47;;;18.83;77.04
16664;BME280;8445;51.270;9.434;2023-08-21T03:26:44;100142.94;;;18.98;76.81
16664;BME280;8445;51.270;9.434;2023-08-21T03:29:20;100135.97;;;18.90;77.01
16664;BME280;8445;51.270;9.434;2023-08-21T03:31:52;100137.63;;;18.92;77.25
16664;BME280;8445;51.270;9.434;2023-08-21T03:34:20;100123.25;;;18.79;77.30
16664;BME280;8445;51.270;9.434;2023-08-21T03:37:04;100118.84;;;18.67;77.16
16664;BME280;8445;51.270;9.434;2023-08-21T03:39:34;100137.56;;;18.80;76.73
16664;BME280;8445;51.270;9.434;2023-08-21T03:42:10;100093.31;;;18.51;76.84
16664;BME280;8445;51.270;9.434;2023-08-21T03:44:40;100128.38;;;18.69;76.55
16664;BME280;8445;51.270;9.434;2023-08-21T03:47:09;100136.47;;;18.69;76.66
16664;BME280;8445;51.270;9.434;2023-08-21T03:49:59;100130.31;;;18.62;76.51
16664;BME280;8445;51.270;9.434;2023-08-21T03:52:33;100139.47;;;18.61;76.52
16664;BME280;8445;51.270;9.434;2023-08-21T03:55:02;100069.28;;;18.13;76.50
16664;BME280;8445;51.270;9.434;2023-08-21T03:57:30;100130.19;;;18.57;76.40
16664;BME280;8445;51.270;9.434;2023-08-21T03:59:56;100122.63;;;18.47;76.43
16664;BME280;8445;51.270;9.434;2023-08-21T04:02:34;100128.25;;;18.46;76.37
16664;BME280;8445;51.270;9.434;2023-08-21T04:05:07;100138.13;;;18.52;76.42
16664;BME280;8445;51.270;9.434;2023-08-21T04:07:41;100104.78;;;18.28;76.59
16664;BME280;8445;51.270;9.434;2023-08-21T04:10:12;100108.00;;;18.37;76.31
16664;BME280;8445;51.270;9.434;2023-08-21T04:12:42;100096.78;;;18.21;76.28
16664;BME280;8445;51.270;9.434;2023-08-21T04:15:45;100076.72;;;17.99;76.39
16664;BME280;8445;51.270;9.434;2023-08-21T04:18:34;100059.63;;;17.87;76.45
16664;BME280;8445;51.270;9.434;2023-08-21T04:21:16;100079.03;;;18.14;76.17
16664;BME280;8445;51.270;9.434;2023-08-21T04:23:51;100112.81;;;18.35;76.35
16664;BME280;8445;51.270;9.434;2023-08-21T04:26:23;100145.16;;;18.53;76.18
16664;BME280;8445;51.270;9.434;2023-08-21T04:29:02;100089.16;;;18.18;76.40
16664;BME280;8445;51.270;9.434;2023-08-21T04:31:31;100085.00;;;18.16;76.27
16664;BME280;8445;51.270;9.434;2023-08-21T04:34:07;100083.81;;;18.12;76.22
16664;BME280;8445;51.270;9.434;2023-08-21T04:36:59;100056.50;;;18.08;76.19
16664;BME280;8445;51.270;9.434;2023-08-21T04:39:35;100072.38;;;18.16;76.07
16664;BME280;8445;51.270;9.434;2023-08-21T04:42:12;100054.53;;;18.15;76.03
16664;BME280;8445;51.270;9.434;2023-08-21T04:44:53;100049.31;;;18.20;75.88
16664;BME280;8445;51.270;9.434;2023-08-21T04:47:28;100078.34;;;18.37;75.87
16664;BME280;8445;51.270;9.434;2023-08-21T04:50:07;100062.03;;;18.31;76.22
16664;BME280;8445;51.270;9.434;2023-08-21T04:52:46;100101.44;;;18.63;76.12
16664;BME280;8445;51.270;9.434;2023-08-21T04:55:24;100122.53;;;18.72;76.31
16664;BME280;8445;51.270;9.434;2023-08-21T05:00:50;100133.97;;;18.86;76.02
16664;BME280;8445;51.270;9.434;2023-08-21T05:03:19;100075.84;;;18.53;76.02
16664;BME280;8445;51.270;9.434;2023-08-21T05:06:05;100100.63;;;18.62;76.05
16664;BME280;8445;51.270;9.434;2023-08-21T05:08:36;100131.88;;;18.88;76.23
16664;BME280;8445;51.270;9.434;2023-08-21T05:11:13;100112.47;;;18.79;76.12
16664;BME280;8445;51.270;9.434;2023-08-21T05:13:44;100106.34;;;18.72;76.12
16664;BME280;8445;51.270;9.434;2023-08-21T05:16:24;100094.56;;;18.67;76.20
16664;BME280;8445;51.270;9.434;2023-08-21T05:18:58;100159.00;;;19.23;76.27
16664;BME280;8445;51.270;9.434;2023-08-21T05:21:34;100108.63;;;18.87;76.34
16664;BME280;8445;51.270;9.434;2023-08-21T05:24:10;100145.38;;;19.30;76.47
16664;BME280;8445;51.270;9.434;2023-08-21T05:27:00;100181.84;;;19.51;76.18
16664;BME280;8445;51.270;9.434;2023-08-21T05:29:46;100145.41;;;19.41;76.02
16664;BME280;8445;51.270;9.434;2023-08-21T05:32:20;100179.06;;;19.69;76.02
16664;BME280;8445;51.270;9.434;2023-08-21T05:34:49;100184.97;;;19.77;76.13
16664;BME280;8445;51.270;9.434;2023-08-21T05:37:17;100148.19;;;19.65;75.98
16664;BME280;8445;51.270;9.434;2023-08-21T05:39:46;100149.94;;;19.71;76.13
16664;BME280;8445;51.270;9.434;2023-08-21T05:42:20;100183.06;;;20.01;76.24
16664;BME280;8445;51.270;9.434;2023-08-21T05:44:52;100187.09;;;20.11;76.18
16664;BME280;8445;51.270;9.434;2023-08-21T05:47:21;100182.59;;;20.16;76.20
16664;BME280;8445;51.270;9.434;2023-08-21T05:50:04;100112.56;;;19.80;75.88
16664;BME280;8445;51.270;9.434;2023-08-21T05:52:57;100160.63;;;20.13;75.86
16664;BME280;8445;51.270;9.434;2023-08-21T05:55:27;100180.94;;;20.38;75.92
16664;BME280;8445;51.270;9.434;2023-08-21T05:57:58;100178.00;;;20.40;76.10
16664;BME280;8445;51.270;9.434;2023-08-21T06:00:27;100189.97;;;20.56;75.71
16664;BME280;8445;51.270;9.434;2023-08-21T06:02:56;100158.59;;;20.43;75.94
16664;BME280;8445;51.270;9.434;2023-08-21T06:05:40;100157.06;;;20.47;75.67
16664;BME280;8445;51.270;9.434;2023-08-21T06:08:09;100158.00;;;20.53;75.70
16664;BME280;8445;51.270;9.434;2023-08-21T06:10:42;100170.19;;;20.67;75.72
16664;BME280;8445;51.270;9.434;2023-08-21T06:13:20;100145.59;;;20.69;75.61
16664;BME280;8445;51.270;9.434;2023-08-21T06:15:52;100167.66;;;20.89;75.62
16664;BME280;8445;51.270;9.434;2023-08-21T06:18:29;100165.28;;;20.92;75.32
16664;BME280;8445;51.270;9.434;2023-08-21T06:20:55;100172.44;;;20.99;75.22
16664;BME280;8445;51.270;9.434;2023-08-21T06:23:24;100140.56;;;20.89;75.12
16664;BME280;8445;51.270;9.434;2023-08-21T06:25:50;100188.47;;;21.29;74.93
16664;BME280;8445;51.270;9.434;2023-08-21T06:29:04;100166.50;;;21.13;74.92
16664;BME280;8445;51.270;9.434;2023-08-21T06:35:40;100172.31;;;21.50;74.30
16664;BME280;8445;51.270;9.434;2023-08-21T06:38:49;100111.22;;;21.26;73.97
16664;BME280;8445;51.270;9.434;2023-08-21T06:41:30;100163.19;;;21.73;73.43
16664;BME280;8445;51.270;9.434;2023-08-21T06:44:01;100128.78;;;21.57;72.99
16664;BME280;8445;51.270;9.434;2023-08-21T06:46:33;100116.53;;;21.71;72.74
16664;BME280;8445;51.270;9.434;2023-08-21T06:49:04;100114.22;;;21.80;72.34
16664;BME280;8445;51.270;9.434;2023-08-21T06:51:34;100216.16;;;22.48;71.61
16664;BME280;8445;51.270;9.434;2023-08-21T06:54:16;100139.53;;;22.24;71.36
16664;BME280;8445;51.270;9.434;2023-08-21T06:56:47;100169.03;;;22.37;70.94
16664;BME280;8445;51.270;9.434;2023-08-21T06:59:32;100133.31;;;22.24;70.49
16664;BME280;8445;51.270;9.434;2023-08-21T07:02:08;100159.97;;;22.49;70.06
16664;BME280;8445;51.270;9.434;2023-08-21T07:04:37;100141.94;;;22.42;69.89
16664;BME280;8445;51.270;9.434;2023-08-21T07:07:16;100159.56;;;22.62;70.19
16664;BME280;8445;51.270;9.434;2023-08-21T07:09:52;100181.06;;;22.85;69.86
16664;BME280;8445;51.270;9.434;2023-08-21T07:12:56;100173.59;;;22.97;69.81
16664;BME280;8445;51.270;9.434;2023-08-21T07:15:45;100135.97;;;22.84;69.47
16664;BME280;8445;51.270;9.434;2023-08-21T07:18:12;100165.03;;;23.11;69.24
16664;BME280;8445;51.270;9.434;2023-08-21T07:21:00;100161.25;;;23.12;68.91
16664;BME280;8445;51.270;9.434;2023-08-21T07:23:31;100178.16;;;23.19;68.60
16664;BME280;8445;51.270;9.434;2023-08-21T07:26:01;100164.63;;;23.24;68.92
16664;BME280;8445;51.270;9.434;2023-08-21T07:28:40;100133.13;;;23.28;68.14
16664;BME280;8445;51.270;9.434;2023-08-21T07:31:12;100159.59;;;23.65;67.56
16664;BME280;8445;51.270;9.434;2023-08-21T07:33:48;100160.81;;;23.89;67.08
16664;BME280;8445;51.270;9.434;2023-08-21T07:36:17;100157.69;;;24.07;66.43
16664;BME280;8445;51.270;9.434;2023-08-21T07:38:49;100147.25;;;24.31;65.76
16664;BME280;8445;51.270;9.434;2023-08-21T07:41:22;100185.06;;;24.85;64.63
16664;BME280;8445;51.270;9.434;2023-08-21T07:44:06;100138.41;;;24.76;62.44
16664;BME280;8445;51.270;9.434;2023-08-21T07:46:37;100169.63;;;25.11;62.76
16664;BME280;8445;51.270;9.434;2023-08-21T07:49:03;100202.91;;;25.44;63.18
16664;BME280;8445;51.270;9.434;2023-08-21T07:51:29;100174.25;;;25.36;61.91
16664;BME280;8445;51.270;9.434;2023-08-21T07:53:55;100147.25;;;25.19;61.45
16664;BME280;8445;51.270;9.434;2023-08-21T07:56:21;100196.38;;;25.50;60.83
16664;BME280;8445;51.270;9.434;2023-08-21T07:58:47;100206.47;;;25.49;60.84
16664;BME280;8445;51.270;9.434;2023-08-21T08:01:13;100203.47;;;25.41;60.46
16664;BME280;8445;51.270;9.434;2023-08-21T08:03:39;100192.53;;;25.30;61.04
16664;BME280;8445;51.270;9.434;2023-08-21T08:06:05;100180.75;;;25.10;61.28
16664;BME280;8445;51.270;9.434;2023-08-21T08:08:30;100192.47;;;25.10;61.94
16664;BME280;8445;51.270;9.434;2023-08-21T08:11:03;100194.41;;;25.10;61.79
16664;BME280;8445;51.270;9.434;2023-08-21T08:13:30;100189.19;;;24.98;61.45
16664;BME280;8445;51.270;9.434;2023-08-21T08:15:56;100180.94;;;24.83;61.92
16664;BME280;8445;51.270;9.434;2023-08-21T08:18:22;100190.19;;;24.82;62.04
16664;BME280;8445;51.270;9.434;2023-08-21T08:20:48;100179.28;;;24.71;62.23
16664;BME280;8445;51.270;9.434;2023-08-21T08:23:14;100172.16;;;24.70;62.77
16664;BME280;8445;51.270;9.434;2023-08-21T08:25:40;100176.28;;;24.73;62.50
16664;BME280;8445;51.270;9.434;2023-08-21T08:28:06;100170.25;;;24.66;62.53
16664;BME280;8445;51.270;9.434;2023-08-21T08:30:35;100175.69;;;24.66;62.07
16664;BME280;8445;51.270;9.434;2023-08-21T08:33:01;100170.78;;;24.63;62.26
16664;BME280;8445;51.270;9.434;2023-08-21T08:35:27;100175.97;;;24.59;62.29
16664;BME280;8445;51.270;9.434;2023-08-21T08:41:43;100119.41;;;24.24;62.49
16664;BME280;8445;51.270;9.434;2023-08-21T08:44:35;100116.41;;;24.26;62.69
16664;BME280;8445;51.270;9.434;2023-08-21T08:47:13;100104.97;;;24.29;62.47
16664;BME280;8445;51.270;9.434;2023-08-21T08:50:19;100123.03;;;24.35;62.63
16664;BME280;8445;51.270;9.434;2023-08-21T08:53:22;100116.53;;;24.46;62.53
16664;BME280;8445;51.270;9.434;2023-08-21T08:56:18;100142.47;;;24.69;62.82
16664;BME280;8445;51.270;9.434;2023-08-21T08:59:16;100120.91;;;24.52;62.64
16664;BME280;8445;51.270;9.434;2023-08-21T09:02:28;100104.31;;;24.59;62.74
16664;BME280;8445;51.270;9.434;2023-08-21T09:05:10;100107.28;;;24.57;62.65
16664;BME280;8445;51.270;9.434;2023-08-21T09:10:53;100117.75;;;24.86;62.15
16664;BME280;8445;51.270;9.434;2023-08-21T09:13:25;100131.38;;;24.91;61.79
16664;BME280;8445;51.270;9.434;2023-08-21T09:19:21;100101.94;;;24.88;61.15
16664;BME280;8445;51.270;9.434;2023-08-21T09:22:28;100150.53;;;25.26;61.31
16664;BME280;8445;51.270;9.434;2023-08-21T09:25:18;100114.81;;;25.13;61.53
16664;BME280;8445;51.270;9.434;2023-08-21T09:31:19;100129.28;;;25.39;60.91
16664;BME280;8445;51.270;9.434;2023-08-21T09:34:42;100101.19;;;25.33;60.88
16664;BME280;8445;51.270;9.434;2023-08-21T09:37:18;100073.91;;;25.28;61.06
16664;BME280;8445;51.270;9.434;2023-08-21T09:39:44;100087.53;;;25.48;60.37
16664;BME280;8445;51.270;9.434;2023-08-21T09:42:17;100091.34;;;25.57;60.05
16664;BME280;8445;51.270;9.434;2023-08-21T09:44:53;100119.44;;;25.83;59.48
16664;BME280;8445;51.270;9.434;2023-08-21T09:47:20;100131.16;;;25.89;60.07
16664;BME280;8445;51.270;9.434;2023-08-21T09:49:49;100107.97;;;25.86;59.40
16664;BME280;8445;51.270;9.434;2023-08-21T09:52:21;100131.13;;;26.09;59.08
16664;BME280;8445;51.270;9.434;2023-08-21T09:54:52;100137.38;;;26.15;59.40
16664;BME280;8445;51.270;9.434;2023-08-21T09:57:22;100120.47;;;26.08;58.74
16664;BME280;8445;51.270;9.434;2023-08-21T10:00:00;100136.81;;;26.23;58.91
16664;BME280;8445;51.270;9.434;2023-08-21T10:02:46;100135.69;;;26.29;59.03
16664;BME280;8445;51.270;9.434;2023-08-21T10:05:19;100105.97;;;26.17;58.22
16664;BME280;8445;51.270;9.434;2023-08-21T10:07:55;100126.69;;;26.39;57.81
16664;BME280;8445;51.270;9.434;2023-08-21T10:10:24;100103.50;;;26.21;57.96
16664;BME280;8445;51.270;9.434;2023-08-21T10:12:51;100143.84;;;26.49;57.95
16664;BME280;8445;51.270;9.434;2023-08-21T10:15:20;100139.50;;;26.48;58.05
16664;BME280;8445;51.270;9.434;2023-08-21T10:17:46;100124.69;;;26.55;58.82
16664;BME280;8445;51.270;9.434;2023-08-21T10:20:21;100097.69;;;26.43;58.43
16664;BME280;8445;51.270;9.434;2023-08-21T10:22:55;100085.41;;;26.40;58.20
16664;BME280;8445;51.270;9.434;2023-08-21T10:25:27;100094.91;;;26.58;57.75
16664;BME280;8445;51.270;9.434;2023-08-21T10:28:12;100098.41;;;26.64;57.18
16664;BME280;8445;51.270;9.434;2023-08-21T10:30:49;100114.66;;;26.89;56.82
16664;BME280;8445;51.270;9.434;2023-08-21T10:33:15;100096.97;;;26.76;56.80
16664;BME280;8445;51.270;9.434;2023-08-21T10:35:41;100125.81;;;27.03;56.79
16664;BME280;8445;51.270;9.434;2023-08-21T10:38:14;100057.66;;;26.67;57.07
16664;BME280;8445;51.270;9.434;2023-08-21T10:41:06;100129.78;;;27.21;56.48
16664;BME280;8445;51.270;9.434;2023-08-21T10:43:45;100109.00;;;27.20;56.98
16664;BME280;8445;51.270;9.434;2023-08-21T10:46:12;100126.94;;;27.36;56.53
16664;BME280;8445;51.270;9.434;2023-08-21T10:48:42;100074.59;;;27.14;56.56
16664;BME280;8445;51.270;9.434;2023-08-21T10:51:09;100074.25;;;27.20;57.10
16664;BME280;8445;51.270;9.434;2023-08-21T10:53:42;100116.88;;;27.60;57.02
16664;BME280;8445;51.270;9.434;2023-08-21T10:56:08;100057.47;;;27.32;55.44
16664;BME280;8445;51.270;9.434;2023-08-21T10:58:44;100073.97;;;27.51;55.78
16664;BME280;8445;51.270;9.434;2023-08-21T11:01:19;100061.38;;;27.55;55.16
16664;BME280;8445;51.270;9.434;2023-08-21T11:03:53;100074.03;;;27.80;54.81
16664;BME280;8445;51.270;9.434;2023-08-21T11:06:22;100039.53;;;27.79;54.35
16664;BME280;8445;51.270;9.434;2023-08-21T11:08:50;100096.16;;;28.31;54.03
16664;BME280;8445;51.270;9.434;2023-08-21T11:11:22;100091.06;;;28.43;53.48
16664;BME280;8445;51.270;9.434;2023-08-21T11:13:54;100070.50;;;28.46;53.40
16664;BME280;8445;51.270;9.434;2023-08-21T11:16:20;100117.38;;;29.06;52.44
16664;BME280;8445;51.270;9.434;2023-08-21T11:18:46;100084.03;;;28.99;51.61
16664;BME280;8445;51.270;9.434;2023-08-21T11:21:12;100091.31;;;29.22;51.77
16664;BME280;8445;51.270;9.434;2023-08-21T11:23:42;100078.41;;;29.23;50.76
16664;BME280;8445;51.270;9.434;2023-08-21T11:26:12;100110.13;;;29.48;51.65
16664;BME280;8445;51.270;9.434;2023-08-21T11:28:38;100094.22;;;29.44;51.71
16664;BME280;8445;51.270;9.434;2023-08-21T11:31:08;100086.47;;;29.52;50.98
16664;BME280;8445;51.270;9.434;2023-08-21T11:33:39;100090.25;;;29.69;50.60
16664;BME280;8445;51.270;9.434;2023-08-21T11:36:06;100099.13;;;29.80;50.67
16664;BME280;8445;51.270;9.434;2023-08-21T11:38:32;100105.00;;;29.87;50.52
16664;BME280;8445;51.270;9.434;2023-08-21T11:41:05;100106.75;;;29.83;50.90
16664;BME280;8445;51.270;9.434;2023-08-21T11:43:40;100076.81;;;29.54;49.61
16664;BME280;8445;51.270;9.434;2023-08-21T11:46:09;100108.53;;;29.60;50.03
16664;BME280;8445;51.270;9.434;2023-08-21T11:48:52;100082.75;;;29.42;50.49
16664;BME280;8445;51.270;9.434;2023-08-21T11:51:20;100093.47;;;29.58;50.32
16664;BME280;8445;51.270;9.434;2023-08-21T11:53:48;100027.75;;;29.01;50.23
16664;BME280;8445;51.270;9.434;2023-08-21T11:56:20;100103.44;;;29.35;50.62
16664;BME280;8445;51.270;9.434;2023-08-21T11:59:10;100039.81;;;28.81;51.03
16664;BME280;8445;51.270;9.434;2023-08-21T12:01:43;100093.47;;;29.25;51.38
16664;BME280;8445;51.270;9.434;2023-08-21T12:04:31;100078.44;;;29.36;50.73
16664;BME280;8445;51.270;9.434;2023-08-21T12:07:02;100091.16;;;29.65;50.94
16664;BME280;8445;51.270;9.434;2023-08-21T12:09:45;100080.09;;;29.84;50.04
16664;BME280;8445;51.270;9.434;2023-08-21T12:12:37;100069.41;;;29.96;49.49
16664;BME280;8445;51.270;9.434;2023-08-21T12:15:18;100037.66;;;29.76;49.05
16664;BME280;8445;51.270;9.434;2023-08-21T12:17:45;100045.22;;;29.84;49.30
16664;BME280;8445;51.270;9.434;2023-08-21T12:20:13;100052.13;;;29.95;49.24
16664;BME280;8445;51.270;9.434;2023-08-21T12:22:42;100071.06;;;30.24;49.36
16664;BME280;8445;51.270;9.434;2023-08-21T12:25:13;100055.06;;;30.26;49.18
16664;BME280;8445;51.270;9.434;2023-08-21T12:27:44;100037.66;;;30.31;48.78
16664;BME280;8445;51.270;9.434;2023-08-21T12:30:15;100025.34;;;30.28;48.37
16664;BME280;8445;51.270;9.434;2023-08-21T12:32:48;100082.91;;;30.97;48.13
16664;BME280;8445;51.270;9.434;2023-08-21T12:35:19;100052.97;;;30.96;46.77
16664;BME280;8445;51.270;9.434;2023-08-21T12:37:48;100036.22;;;31.06;45.38
16664;BME280;8445;51.270;9.434;2023-08-21T12:40:16;100046.53;;;31.23;45.63
16664;BME280;8445;51.270;9.434;2023-08-21T12:42:47;100053.59;;;31.37;45.75
16664;BME280;8445;51.270;9.434;2023-08-21T12:45:17;100014.97;;;31.20;45.66
16664;BME280;8445;51.270;9.434;2023-08-21T12:47:52;100008.00;;;31.23;45.00
16664;BME280;8445;51.270;9.434;2023-08-21T12:50:21;100079.16;;;31.60;44.95
16664;BME280;8445;51.270;9.434;2023-08-21T12:52:50;100049.91;;;31.42;45.21
16664;BME280;8445;51.270;9.434;2023-08-21T12:55:16;100033.81;;;31.27;44.98
16664;BME280;8445;51.270;9.434;2023-08-21T12:57:44;100019.41;;;31.30;44.58
16664;BME280;8445;51.270;9.434;2023-08-21T13:00:11;100050.91;;;31.46;44.95
16664;BME280;8445;51.270;9.434;2023-08-21T13:02:40;100011.69;;;31.18;44.82
16664;BME280;8445;51.270;9.434;2023-08-21T13:05:11;100056.41;;;31.46;45.33
16664;BME280;8445;51.270;9.434;2023-08-21T13:07:42;100041.59;;;31.33;45.34
16664;BME280;8445;51.270;9.434;2023-08-21T13:10:08;100010.31;;;31.07;45.67
16664;BME280;8445;51.270;9.434;2023-08-21T13:12:41;100038.22;;;31.14;45.36
16664;BME280;8445;51.270;9.434;2023-08-21T13:15:13;99983.41;;;30.73;45.38
16664;BME280;8445;51.270;9.434;2023-08-21T13:17:39;100000.91;;;30.77;44.41
16664;BME280;8445;51.270;9.434;2023-08-21T13:20:09;100009.88;;;30.69;44.04
16664;BME280;8445;51.270;9.434;2023-08-21T13:22:49;100009.09;;;30.54;44.21
16664;BME280;8445;51.270;9.434;2023-08-21T13:25:30;100035.97;;;30.57;45.09
16664;BME280;8445;51.270;9.434;2023-08-21T13:28:03;100018.09;;;30.46;45.28
16664;BME280;8445;51.270;9.434;2023-08-21T13:30:39;99999.38;;;30.35;45.52
16664;BME280;8445;51.270;9.434;2023-08-21T13:33:18;99964.41;;;30.13;46.15
16664;BME280;8445;51.270;9.434;2023-08-21T13:35:51;100025.59;;;30.54;46.17
16664;BME280;8445;51.270;9.434;2023-08-21T13:38:20;99994.84;;;30.52;45.63
16664;BME280;8445;51.270;9.434;2023-08-21T13:40:52;100017.91;;;30.79;44.69
16664;BME280;8445;51.270;9.434;2023-08-21T13:43:31;100040.09;;;31.05;45.02
16664;BME280;8445;51.270;9.434;2023-08-21T13:46:02;100022.03;;;31.12;44.99
16664;BME280;8445;51.270;9.434;2023-08-21T13:48:37;100014.22;;;31.28;44.67
16664;BME280;8445;51.270;9.434;2023-08-21T13:51:03;99999.00;;;31.31;44.59
16664;BME280;8445;51.270;9.434;2023-08-21T13:53:32;100007.47;;;31.43;44.05
16664;BME280;8445;51.270;9.434;2023-08-21T13:56:03;99995.50;;;31.39;43.91
16664;BME280;8445;51.270;9.434;2023-08-21T13:58:30;99995.69;;;31.51;44.29
16664;BME280;8445;51.270;9.434;2023-08-21T14:00:59;99955.28;;;31.29;43.46
16664;BME280;8445;51.270;9.434;2023-08-21T14:03:26;99987.50;;;31.68;43.77